^^
Datos históricos de la estación: Murcia-Puente Tocinos
Diario Informe para Enero 8, 2019 Unidades:  Ambas    Ingés   Métrico
Diario Semanal Mensual Anual
  Máxima: Mínima: Promedio:
Temperatura: 61.2 °F /  16.2 °C 42.4 °F /  5.8 °C 50.4 °F /  10.2 °C
Punto de rocio: 44.1 °F /  6.7 °C 32.5 °F /  0.3 °C 39.4 °F /  4.1 °C
Humedad: 81% 43% 67%
Velocidad viento: 6.4mph /  10.3km/h - 4mph /  6.4km/h
Racha viento: 12mph /  19.3km/h - -
Viento- - SSO
Presión: 30.4 in /  1029.9 hPa 30.2 in /  1021.7 hPa -
Precipitación: 0 in /  0.0 mm    
 
 
Tabla de datos para Enero 8, 2019
Hora Temperatura Punto de rocio Presión Viento Velocidad viento Racha viento Humedad Intensidad lluvia(por hora) Nubes
00:04 48.6 °F /  9.2 °C 43 °F /  6.1 °C 30.4in /  1028.4hPa SSO 3.1mph /  5km/h 4.6mph /  7.4km/h 81% 0in /  0.0mm
00:09 48.4 °F /  9.1 °C 42.8 °F /  6 °C 30.4in /  1028.4hPa Sur 3mph /  4.8km/h 6.2mph /  10km/h 81% 0in /  0.0mm
00:14 48 °F /  8.9 °C 42.6 °F /  5.9 °C 30.4in /  1028.4hPa Sur 2.9mph /  4.7km/h 6.9mph /  11.1km/h 81% 0in /  0.0mm
00:19 48 °F /  8.9 °C 42.4 °F /  5.8 °C 30.4in /  1028.4hPa Sur 3.8mph /  6.1km/h 7mph /  11.3km/h 81% 0in /  0.0mm
00:24 48 °F /  8.9 °C 42.4 °F /  5.8 °C 30.4in /  1028.3hPa SSO 4.3mph /  6.9km/h 7mph /  11.3km/h 81% 0in /  0.0mm
00:29 48 °F /  8.9 °C 42.4 °F /  5.8 °C 30.4in /  1028.3hPa SSO 4.3mph /  6.9km/h 7mph /  11.3km/h 81% 0in /  0.0mm
00:34 48 °F /  8.9 °C 42.4 °F /  5.8 °C 30.4in /  1028.3hPa Sur 4.3mph /  6.9km/h 5mph /  8km/h 81% 0in /  0.0mm
00:39 48 °F /  8.9 °C 42.4 °F /  5.8 °C 30.4in /  1028.3hPa Sur 3.6mph /  5.8km/h 5.2mph /  8.4km/h 81% 0in /  0.0mm
00:44 48 °F /  8.9 °C 42.4 °F /  5.8 °C 30.4in /  1028.3hPa SSO 3.1mph /  5km/h 5.2mph /  8.4km/h 81% 0in /  0.0mm
00:49 48 °F /  8.9 °C 42.4 °F /  5.8 °C 30.4in /  1028.4hPa Sur 3.1mph /  5km/h 5.2mph /  8.4km/h 81% 0in /  0.0mm
00:54 48 °F /  8.9 °C 42.4 °F /  5.8 °C 30.4in /  1028.4hPa SE 3.1mph /  5km/h 5.4mph /  8.7km/h 81% 0in /  0.0mm
00:59 47.8 °F /  8.8 °C 42.4 °F /  5.8 °C 30.4in /  1028.4hPa SSE 3mph /  4.8km/h 5mph /  8km/h 81% 0in /  0.0mm
01:04 47.8 °F /  8.8 °C 42.3 °F /  5.7 °C 30.4in /  1028.4hPa Sur 2.9mph /  4.6km/h 5.2mph /  8.4km/h 81% 0in /  0.0mm
01:09 47.8 °F /  8.8 °C 42.3 °F /  5.7 °C 30.4in /  1028.4hPa SSO 3mph /  4.9km/h 8.1mph /  13km/h 81% 0in /  0.0mm
01:14 47.8 °F /  8.8 °C 42.3 °F /  5.7 °C 30.4in /  1028.4hPa SSO 3.1mph /  5km/h 8mph /  12.9km/h 81% 0in /  0.0mm
01:19 47.8 °F /  8.8 °C 42.3 °F /  5.7 °C 30.4in /  1028.4hPa SSO 3.7mph /  5.9km/h 6.9mph /  11.1km/h 81% 0in /  0.0mm
01:24 47.8 °F /  8.8 °C 42.3 °F /  5.7 °C 30.4in /  1028.3hPa SSO 4mph /  6.5km/h 7.4mph /  11.9km/h 81% 0in /  0.0mm
01:29 47.8 °F /  8.8 °C 42.3 °F /  5.7 °C 30.4in /  1028.3hPa SSO 4.2mph /  6.7km/h 7.4mph /  11.9km/h 81% 0in /  0.0mm
01:34 47.8 °F /  8.8 °C 42.1 °F /  5.6 °C 30.4in /  1028.3hPa SSO 4.3mph /  6.9km/h 7mph /  11.3km/h 80.2% 0in /  0.0mm
01:39 47.8 °F /  8.8 °C 42.1 °F /  5.6 °C 30.4in /  1028.3hPa SSO 4.3mph /  6.9km/h 7mph /  11.3km/h 80% 0in /  0.0mm
01:44 47.8 °F /  8.8 °C 41.9 °F /  5.5 °C 30.4in /  1028.3hPa SSO 4.3mph /  6.9km/h 7mph /  11.3km/h 80% 0in /  0.0mm
01:49 47.7 °F /  8.7 °C 41.7 °F /  5.4 °C 30.4in /  1028.3hPa SSO 4.1mph /  6.6km/h 7mph /  11.3km/h 80% 0in /  0.0mm
01:54 47.7 °F /  8.7 °C 41.7 °F /  5.4 °C 30.4in /  1028.3hPa Sur 4mph /  6.5km/h 6.2mph /  10km/h 80% 0in /  0.0mm
01:59 47.5 °F /  8.6 °C 41.5 °F /  5.3 °C 30.4in /  1028.3hPa SSO 4.2mph /  6.8km/h 6.9mph /  11.1km/h 80% 0in /  0.0mm
02:04 47.5 °F /  8.6 °C 41.5 °F /  5.3 °C 30.4in /  1028.3hPa SSO 4.3mph /  6.9km/h 9.2mph /  14.8km/h 80% 0in /  0.0mm
02:09 47.5 °F /  8.6 °C 41.5 °F /  5.3 °C 30.4in /  1028.3hPa SSO 4.8mph /  7.8km/h 9mph /  14.5km/h 80% 0in /  0.0mm
02:14 47.5 °F /  8.6 °C 41.5 °F /  5.3 °C 30.4in /  1028.3hPa SO 5.2mph /  8.4km/h 7mph /  11.3km/h 80% 0in /  0.0mm
02:19 47.7 °F /  8.7 °C 41.7 °F /  5.4 °C 30.4in /  1028.5hPa SO 4.9mph /  7.9km/h 9.2mph /  14.8km/h 80% 0in /  0.0mm
02:24 47.7 °F /  8.7 °C 41.5 °F /  5.3 °C 30.4in /  1028.5hPa SO 4.7mph /  7.6km/h 9mph /  14.5km/h 79.2% 0in /  0.0mm
02:29 47.7 °F /  8.7 °C 41.5 °F /  5.3 °C 30.4in /  1028.5hPa SO 4.7mph /  7.6km/h 8.1mph /  13km/h 79% 0in /  0.0mm
02:34 47.7 °F /  8.7 °C 41.5 °F /  5.3 °C 30.4in /  1028.7hPa SO 4.7mph /  7.6km/h 8.1mph /  13km/h 79% 0in /  0.0mm
02:39 47.8 °F /  8.8 °C 41.4 °F /  5.2 °C 30.4in /  1028.7hPa SSO 4.7mph /  7.6km/h 8.1mph /  13km/h 78.1% 0in /  0.0mm
02:44 47.8 °F /  8.8 °C 41.4 °F /  5.2 °C 30.4in /  1028.7hPa SO 4.7mph /  7.6km/h 8.1mph /  13km/h 78% 0in /  0.0mm
02:49 47.8 °F /  8.8 °C 41.4 °F /  5.2 °C 30.4in /  1028.9hPa SSO 5mph /  8.1km/h 8.1mph /  13km/h 78% 0in /  0.0mm
02:54 47.7 °F /  8.7 °C 41.2 °F /  5.1 °C 30.4in /  1028.9hPa SO 5.2mph /  8.4km/h 8mph /  12.9km/h 78% 0in /  0.0mm
02:59 47.7 °F /  8.7 °C 41.2 °F /  5.1 °C 30.4in /  1028.9hPa SO 4.4mph /  7.1km/h 7mph /  11.3km/h 78% 0in /  0.0mm
03:04 47.7 °F /  8.7 °C 41 °F /  5 °C 30.4in /  1029.0hPa SO 4mph /  6.5km/h 7.4mph /  11.9km/h 78% 0in /  0.0mm
03:09 47.5 °F /  8.6 °C 41 °F /  5 °C 30.4in /  1029.0hPa OSO 4.2mph /  6.8km/h 7mph /  11.3km/h 78% 0in /  0.0mm
03:14 47.5 °F /  8.6 °C 41.2 °F /  5.1 °C 30.4in /  1029.0hPa SO 4.3mph /  6.9km/h 6mph /  9.7km/h 78.9% 0in /  0.0mm
03:19 47.3 °F /  8.5 °C 41.2 °F /  5.1 °C 30.4in /  1029.0hPa SO 3.9mph /  6.3km/h 6.9mph /  11.1km/h 79% 0in /  0.0mm
03:24 47.3 °F /  8.5 °C 41 °F /  5 °C 30.4in /  1029.0hPa SO 3.6mph /  5.8km/h 7mph /  11.3km/h 79% 0in /  0.0mm
03:29 47.1 °F /  8.4 °C 40.8 °F /  4.9 °C 30.4in /  1029.0hPa SO 3.9mph /  6.2km/h 6.2mph /  10km/h 79% 0in /  0.0mm
03:34 47.1 °F /  8.4 °C 40.8 °F /  4.9 °C 30.4in /  1029.0hPa SSO 4mph /  6.5km/h 6mph /  9.7km/h 79% 0in /  0.0mm
03:39 46.9 °F /  8.3 °C 40.8 °F /  4.9 °C 30.4in /  1029.0hPa Sur 3.8mph /  6.1km/h 6mph /  9.7km/h 79% 0in /  0.0mm
03:44 46.6 °F /  8.1 °C 40.6 °F /  4.8 °C 30.4in /  1029.0hPa SSO 3.6mph /  5.8km/h 6mph /  9.7km/h 79.8% 0in /  0.0mm
03:49 46.2 °F /  7.9 °C 40.6 °F /  4.8 °C 30.4in /  1029.0hPa SO 3.6mph /  5.8km/h 6.2mph /  10km/h 80.4% 0in /  0.0mm
03:54 46.2 °F /  7.9 °C 40.5 °F /  4.7 °C 30.4in /  1029.0hPa SSO 3.6mph /  5.8km/h 6.2mph /  10km/h 80.4% 0in /  0.0mm
03:59 46.2 °F /  7.9 °C 40.3 °F /  4.6 °C 30.4in /  1029.0hPa SSO 3.6mph /  5.8km/h 6.9mph /  11.1km/h 79.6% 0in /  0.0mm
04:04 46.2 °F /  7.9 °C 40.1 °F /  4.5 °C 30.4in /  1029.0hPa SSO 3.6mph /  5.8km/h 10.7mph /  17.2km/h 79% 0in /  0.0mm
04:09 46.2 °F /  7.9 °C 39.7 °F /  4.3 °C 30.4in /  1029.0hPa SSO 4.7mph /  7.5km/h 11.5mph /  18.5km/h 77.9% 0in /  0.0mm
04:14 46.2 °F /  7.9 °C 39.4 °F /  4.1 °C 30.4in /  1029.0hPa SSO 5.4mph /  8.7km/h 12mph /  19.3km/h 76.7% 0in /  0.0mm
04:19 46.2 °F /  7.9 °C 39 °F /  3.9 °C 30.4in /  1029.0hPa SSO 6mph /  9.7km/h 10mph /  16.1km/h 76% 0in /  0.0mm
04:24 46 °F /  7.8 °C 38.7 °F /  3.7 °C 30.4in /  1028.9hPa Sur 6.4mph /  10.3km/h 9mph /  14.5km/h 75.2% 0in /  0.0mm
04:29 46 °F /  7.8 °C 38.8 °F /  3.8 °C 30.4in /  1028.9hPa SSO 5.7mph /  9.2km/h 9.2mph /  14.8km/h 76% 0in /  0.0mm
04:34 45.9 °F /  7.7 °C 38.7 °F /  3.7 °C 30.4in /  1029.0hPa SSO 5.2mph /  8.4km/h 9.7mph /  15.6km/h 76% 0in /  0.0mm
04:39 45.9 °F /  7.7 °C 39 °F /  3.9 °C 30.4in /  1029.0hPa SSO 5.8mph /  9.4km/h 10mph /  16.1km/h 76.7% 0in /  0.0mm
04:44 45.9 °F /  7.7 °C 39 °F /  3.9 °C 30.4in /  1029.0hPa SSO 6.2mph /  10km/h 9.2mph /  14.8km/h 76.7% 0in /  0.0mm
04:49 45.9 °F /  7.7 °C 38.7 °F /  3.7 °C 30.4in /  1029.0hPa SO 6mph /  9.7km/h 9.7mph /  15.6km/h 75.8% 0in /  0.0mm
04:54 45.9 °F /  7.7 °C 38.3 °F /  3.5 °C 30.4in /  1028.9hPa SSO 5.9mph /  9.5km/h 10mph /  16.1km/h 75% 0in /  0.0mm
04:59 45.7 °F /  7.6 °C 38.1 °F /  3.4 °C 30.4in /  1028.9hPa SO 5.9mph /  9.5km/h 9mph /  14.5km/h 75% 0in /  0.0mm
05:04 45.7 °F /  7.6 °C 38.1 °F /  3.4 °C 30.4in /  1029.0hPa SSO 5.9mph /  9.5km/h 7mph /  11.3km/h 75% 0in /  0.0mm
05:09 45.7 °F /  7.6 °C 38.1 °F /  3.4 °C 30.4in /  1029.0hPa SO 4.8mph /  7.7km/h 6mph /  9.7km/h 75% 0in /  0.0mm
05:14 45.3 °F /  7.4 °C 37.6 °F /  3.1 °C 30.4in /  1029.0hPa OSO 4mph /  6.5km/h 6.2mph /  10km/h 74.1% 0in /  0.0mm
05:19 45.3 °F /  7.4 °C 37.4 °F /  3 °C 30.4in /  1029.0hPa OSO 4mph /  6.5km/h 6.9mph /  11.1km/h 73.4% 0in /  0.0mm
05:24 45.3 °F /  7.4 °C 37.2 °F /  2.9 °C 30.4in /  1029.0hPa Oeste 4mph /  6.5km/h 7mph /  11.3km/h 73% 0in /  0.0mm
05:29 45.3 °F /  7.4 °C 37.2 °F /  2.9 °C 30.4in /  1029.0hPa Oeste 3.8mph /  6.1km/h 7mph /  11.3km/h 73% 0in /  0.0mm
05:34 45.1 °F /  7.3 °C 37 °F /  2.8 °C 30.4in /  1029.0hPa OSO 3.6mph /  5.8km/h 6.9mph /  11.1km/h 73% 0in /  0.0mm
05:39 45.1 °F /  7.3 °C 37 °F /  2.8 °C 30.4in /  1028.9hPa OSO 3.9mph /  6.2km/h 8.5mph /  13.7km/h 73% 0in /  0.0mm
05:44 45.1 °F /  7.3 °C 36.7 °F /  2.6 °C 30.4in /  1028.9hPa OSO 4mph /  6.5km/h 9mph /  14.5km/h 72% 0in /  0.0mm
05:49 45.1 °F /  7.3 °C 36.7 °F /  2.6 °C 30.4in /  1028.9hPa SO 4.4mph /  7.1km/h 8mph /  12.9km/h 72% 0in /  0.0mm
05:54 45.1 °F /  7.3 °C 36.7 °F /  2.6 °C 30.4in /  1028.9hPa SO 4.7mph /  7.6km/h 7mph /  11.3km/h 72% 0in /  0.0mm
05:59 45.1 °F /  7.3 °C 36.7 °F /  2.6 °C 30.4in /  1028.9hPa OSO 4.2mph /  6.8km/h 6.9mph /  11.1km/h 72% 0in /  0.0mm
06:04 45.1 °F /  7.3 °C 36.7 °F /  2.6 °C 30.4in /  1028.9hPa OSO 4mph /  6.5km/h 8.1mph /  13km/h 72% 0in /  0.0mm
06:09 45.1 °F /  7.3 °C 36.5 °F /  2.5 °C 30.4in /  1028.8hPa SO 4.7mph /  7.6km/h 8.7mph /  14km/h 71.7% 0in /  0.0mm
06:14 45.1 °F /  7.3 °C 36.3 °F /  2.4 °C 30.4in /  1028.8hPa SO 5.2mph /  8.4km/h 9mph /  14.5km/h 71% 0in /  0.0mm
06:19 45.1 °F /  7.3 °C 36.3 °F /  2.4 °C 30.4in /  1028.9hPa SO 4.5mph /  7.2km/h 6.2mph /  10km/h 71.2% 0in /  0.0mm
06:24 45.1 °F /  7.3 °C 36.9 °F /  2.7 °C 30.4in /  1028.9hPa SSO 4mph /  6.5km/h 6.2mph /  10km/h 72.9% 0in /  0.0mm
06:29 45 °F /  7.2 °C 37.4 °F /  3 °C 30.4in /  1028.9hPa SSO 4mph /  6.5km/h 6mph /  9.7km/h 74.7% 0in /  0.0mm
06:34 44.6 °F /  7 °C 37.2 °F /  2.9 °C 30.4in /  1028.9hPa Sur 4mph /  6.5km/h 6.9mph /  11.1km/h 75.5% 0in /  0.0mm
06:39 44.4 °F /  6.9 °C 37.2 °F /  2.9 °C 30.4in /  1028.9hPa SO 4.2mph /  6.8km/h 8.1mph /  13km/h 76% 0in /  0.0mm
06:44 44.4 °F /  6.9 °C 36.7 °F /  2.6 °C 30.4in /  1028.9hPa SSO 4.3mph /  6.9km/h 9.2mph /  14.8km/h 74.4% 0in /  0.0mm
06:49 44.6 °F /  7 °C 36 °F /  2.2 °C 30.4in /  1029.0hPa SO 5mph /  8km/h 9.2mph /  14.8km/h 71.8% 0in /  0.0mm
06:54 44.8 °F /  7.1 °C 35.4 °F /  1.9 °C 30.4in /  1029.0hPa SO 5.4mph /  8.7km/h 11.5mph /  18.5km/h 69.4% 0in /  0.0mm
06:59 45 °F /  7.2 °C 35.8 °F /  2.1 °C 30.4in /  1029.0hPa SSO 5.7mph /  9.2km/h 12mph /  19.3km/h 69.8% 0in /  0.0mm
07:04 44.8 °F /  7.1 °C 36.3 °F /  2.4 °C 30.4in /  1029.0hPa SSO 5.9mph /  9.5km/h 6mph /  9.7km/h 72% 0in /  0.0mm
07:09 44.6 °F /  7 °C 36.5 °F /  2.5 °C 30.4in /  1028.9hPa SSO 4.9mph /  7.9km/h 8.5mph /  13.7km/h 73.2% 0in /  0.0mm
07:14 44.2 °F /  6.8 °C 36.1 °F /  2.3 °C 30.4in /  1028.9hPa SO 4.3mph /  6.9km/h 9mph /  14.5km/h 73.3% 0in /  0.0mm
07:19 44.1 °F /  6.7 °C 36 °F /  2.2 °C 30.4in /  1028.9hPa SSO 4.8mph /  7.8km/h 8.7mph /  14km/h 73% 0in /  0.0mm
07:24 43.9 °F /  6.6 °C 35.8 °F /  2.1 °C 30.4in /  1028.9hPa SSO 5.2mph /  8.4km/h 9.2mph /  14.8km/h 73% 0in /  0.0mm
07:29 43.7 °F /  6.5 °C 35.8 °F /  2.1 °C 30.4in /  1028.9hPa SSO 4.9mph /  7.9km/h 9mph /  14.5km/h 73.5% 0in /  0.0mm
07:34 43.5 °F /  6.4 °C 35.8 °F /  2.1 °C 30.4in /  1028.9hPa SO 4.7mph /  7.6km/h 7.4mph /  11.9km/h 74.1% 0in /  0.0mm
07:39 43.5 °F /  6.4 °C 36.1 °F /  2.3 °C 30.4in /  1028.9hPa SO 4.7mph /  7.6km/h 7.4mph /  11.9km/h 75% 0in /  0.0mm
07:44 43.3 °F /  6.3 °C 36 °F /  2.2 °C 30.4in /  1028.9hPa SO 4.7mph /  7.6km/h 7.6mph /  12.2km/h 74.9% 0in /  0.0mm
07:49 43.3 °F /  6.3 °C 35.4 °F /  1.9 °C 30.4in /  1028.9hPa SO 5mph /  8km/h 8.5mph /  13.7km/h 73.7% 0in /  0.0mm
07:54 43.3 °F /  6.3 °C 35.2 °F /  1.8 °C 30.4in /  1028.9hPa SO 5.2mph /  8.4km/h 9mph /  14.5km/h 72.9% 0in /  0.0mm
07:59 43.3 °F /  6.3 °C 34.7 °F /  1.5 °C 30.4in /  1028.9hPa SO 5.2mph /  8.4km/h 9.7mph /  15.6km/h 71.5% 0in /  0.0mm
08:04 43.2 °F /  6.2 °C 34.5 °F /  1.4 °C 30.4in /  1028.9hPa SSO 5.2mph /  8.4km/h 10mph /  16.1km/h 71% 0in /  0.0mm
08:09 43.2 °F /  6.2 °C 34.2 °F /  1.2 °C 30.4in /  1028.9hPa SO 4.9mph /  7.9km/h 9.2mph /  14.8km/h 70.3% 0in /  0.0mm
08:14 43.2 °F /  6.2 °C 33.8 °F /  1 °C 30.4in /  1028.9hPa OSO 4.7mph /  7.6km/h 10.7mph /  17.2km/h 69.4% 0in /  0.0mm
08:19 43 °F /  6.1 °C 33.4 °F /  0.8 °C 30.4in /  1028.9hPa OSO 5.4mph /  8.7km/h 11mph /  17.7km/h 68.5% 0in /  0.0mm
08:24 43 °F /  6.1 °C 33.1 °F /  0.6 °C 30.4in /  1028.9hPa OSO 5.9mph /  9.5km/h 9mph /  14.5km/h 68.2% 0in /  0.0mm
08:29 42.8 °F /  6 °C 33.3 °F /  0.7 °C 30.4in /  1028.9hPa SO 4.7mph /  7.6km/h 6.9mph /  11.1km/h 69% 0in /  0.0mm
08:34 42.8 °F /  6 °C 33.3 °F /  0.7 °C 30.4in /  1029.0hPa OSO 4mph /  6.5km/h 7mph /  11.3km/h 69% 0in /  0.0mm
08:39 42.8 °F /  6 °C 33.3 °F /  0.7 °C 30.4in /  1029.0hPa OSO 4mph /  6.5km/h 7mph /  11.3km/h 69% 0in /  0.0mm
08:44 42.6 °F /  5.9 °C 33.3 °F /  0.7 °C 30.4in /  1029.0hPa OSO 4mph /  6.5km/h 6mph /  9.7km/h 69% 0in /  0.0mm
08:49 42.4 °F /  5.8 °C 33.1 °F /  0.6 °C 30.4in /  1029.1hPa OSO 3.8mph /  6.1km/h 6.9mph /  11.1km/h 69% 0in /  0.0mm
08:54 42.4 °F /  5.8 °C 33.1 °F /  0.6 °C 30.4in /  1029.1hPa OSO 3.6mph /  5.8km/h 7mph /  11.3km/h 69% 0in /  0.0mm
08:59 42.4 °F /  5.8 °C 32.9 °F /  0.5 °C 30.4in /  1029.1hPa SO 3.9mph /  6.2km/h 7mph /  11.3km/h 69% 0in /  0.0mm
09:04 42.4 °F /  5.8 °C 33.1 °F /  0.6 °C 30.4in /  1029.3hPa SSO 4mph /  6.5km/h 6mph /  9.7km/h 69% 0in /  0.0mm
09:09 42.4 °F /  5.8 °C 32.7 °F /  0.4 °C 30.4in /  1029.3hPa SSO 3.5mph /  5.6km/h 6.2mph /  10km/h 68.4% 0in /  0.0mm
09:14 42.4 °F /  5.8 °C 32.5 °F /  0.3 °C 30.4in /  1029.3hPa SSO 3.1mph /  5km/h 6mph /  9.7km/h 68% 0in /  0.0mm
09:19 42.4 °F /  5.8 °C 32.7 °F /  0.4 °C 30.4in /  1029.4hPa Sur 3.4mph /  5.5km/h 6.2mph /  10km/h 68% 0in /  0.0mm
09:24 42.8 °F /  6 °C 33.1 °F /  0.6 °C 30.4in /  1029.4hPa SSO 3.6mph /  5.8km/h 6.9mph /  11.1km/h 68% 0in /  0.0mm
09:29 43.2 °F /  6.2 °C 33.3 °F /  0.7 °C 30.4in /  1029.4hPa SSO 3.9mph /  6.2km/h 7mph /  11.3km/h 68% 0in /  0.0mm
09:34 43.3 °F /  6.3 °C 33.3 °F /  0.7 °C 30.4in /  1029.6hPa SO 4mph /  6.5km/h 6.2mph /  10km/h 67.2% 0in /  0.0mm
09:39 43.5 °F /  6.4 °C 32.9 °F /  0.5 °C 30.4in /  1029.6hPa OSO 3.8mph /  6.1km/h 8.5mph /  13.7km/h 65.8% 0in /  0.0mm
09:44 43.9 °F /  6.6 °C 32.9 °F /  0.5 °C 30.4in /  1029.6hPa OSO 3.6mph /  5.8km/h 9mph /  14.5km/h 65% 0in /  0.0mm
09:49 43.9 °F /  6.6 °C 32.9 °F /  0.5 °C 30.4in /  1029.7hPa OSO 4.5mph /  7.3km/h 7mph /  11.3km/h 64.8% 0in /  0.0mm
09:54 44.1 °F /  6.7 °C 32.7 °F /  0.4 °C 30.4in /  1029.7hPa Oeste 5.2mph /  8.4km/h 6.2mph /  10km/h 64.3% 0in /  0.0mm
09:59 44.2 °F /  6.8 °C 32.7 °F /  0.4 °C 30.4in /  1029.7hPa SO 4.4mph /  7.1km/h 6mph /  9.7km/h 64% 0in /  0.0mm
10:04 44.4 °F /  6.9 °C 33.1 °F /  0.6 °C 30.4in /  1029.9hPa OSO 4mph /  6.5km/h 6.2mph /  10km/h 64% 0in /  0.0mm
10:09 45 °F /  7.2 °C 33.3 °F /  0.7 °C 30.4in /  1029.9hPa SO 3.4mph /  5.4km/h 6mph /  9.7km/h 63.8% 0in /  0.0mm
10:14 45.1 °F /  7.3 °C 33.1 °F /  0.6 °C 30.4in /  1029.9hPa SSO 2.9mph /  4.7km/h 6mph /  9.7km/h 62.5% 0in /  0.0mm
10:19 45.5 °F /  7.5 °C 33.3 °F /  0.7 °C 30.4in /  1029.9hPa SSO 3.3mph /  5.3km/h 6mph /  9.7km/h 62.2% 0in /  0.0mm
10:24 45.7 °F /  7.6 °C 33.4 °F /  0.8 °C 30.4in /  1029.8hPa SSO 3.6mph /  5.8km/h 6mph /  9.7km/h 62% 0in /  0.0mm
10:29 45.7 °F /  7.6 °C 33.4 °F /  0.8 °C 30.4in /  1029.8hPa SSO 3.6mph /  5.8km/h 6.2mph /  10km/h 62.2% 0in /  0.0mm
10:34 45.7 °F /  7.6 °C 33.8 °F /  1 °C 30.4in /  1029.8hPa SSO 3.6mph /  5.8km/h 6mph /  9.7km/h 62.9% 0in /  0.0mm
10:39 45.9 °F /  7.7 °C 34 °F /  1.1 °C 30.4in /  1029.8hPa SSO 3.6mph /  5.8km/h 6mph /  9.7km/h 63% 0in /  0.0mm
10:44 46 °F /  7.8 °C 33.8 °F /  1 °C 30.4in /  1029.8hPa SO 3.6mph /  5.8km/h 6mph /  9.7km/h 62.2% 0in /  0.0mm
10:49 46.2 °F /  7.9 °C 34 °F /  1.1 °C 30.4in /  1029.8hPa OSO 3.3mph /  5.3km/h 6.2mph /  10km/h 62% 0in /  0.0mm
10:54 46.6 °F /  8.1 °C 34 °F /  1.1 °C 30.4in /  1029.8hPa Oeste 3.1mph /  5km/h 6.9mph /  11.1km/h 61.6% 0in /  0.0mm
10:59 46.8 °F /  8.2 °C 34 °F /  1.1 °C 30.4in /  1029.8hPa OSO 3.7mph /  5.9km/h 7mph /  11.3km/h 61% 0in /  0.0mm
11:04 46.9 °F /  8.3 °C 34.3 °F /  1.3 °C 30.4in /  1029.9hPa ONO 4mph /  6.5km/h 7mph /  11.3km/h 61% 0in /  0.0mm
11:09 47.3 °F /  8.5 °C 34.2 °F /  1.2 °C 30.4in /  1029.9hPa ONO 3.5mph /  5.6km/h 6mph /  9.7km/h 60.1% 0in /  0.0mm
11:14 47.7 °F /  8.7 °C 34.3 °F /  1.3 °C 30.4in /  1029.9hPa SSO 3.1mph /  5km/h 6.9mph /  11.1km/h 59.6% 0in /  0.0mm
11:19 48 °F /  8.9 °C 34.3 °F /  1.3 °C 30.4in /  1029.9hPa SSO 3.4mph /  5.5km/h 7mph /  11.3km/h 59% 0in /  0.0mm
11:24 48.4 °F /  9.1 °C 34.7 °F /  1.5 °C 30.4in /  1029.7hPa Sur 3.6mph /  5.8km/h 6mph /  9.7km/h 59% 0in /  0.0mm
11:29 48.7 °F /  9.3 °C 34.7 °F /  1.5 °C 30.4in /  1029.7hPa SSO 3.9mph /  6.2km/h 7.4mph /  11.9km/h 58.1% 0in /  0.0mm
11:34 49.1 °F /  9.5 °C 34.9 °F /  1.6 °C 30.4in /  1029.7hPa OSO 4mph /  6.5km/h 7.4mph /  11.9km/h 57.7% 0in /  0.0mm
11:39 49.3 °F /  9.6 °C 34.7 °F /  1.5 °C 30.4in /  1029.5hPa SO 4mph /  6.5km/h 7.6mph /  12.2km/h 57.2% 0in /  0.0mm
11:44 49.5 °F /  9.7 °C 34.9 °F /  1.6 °C 30.4in /  1029.5hPa SO 4mph /  6.5km/h 8mph /  12.9km/h 57.2% 0in /  0.0mm
11:49 49.8 °F /  9.9 °C 35.1 °F /  1.7 °C 30.4in /  1029.5hPa SO 4mph /  6.5km/h 7.6mph /  12.2km/h 56.8% 0in /  0.0mm
11:54 49.8 °F /  9.9 °C 34.7 °F /  1.5 °C 30.4in /  1029.2hPa OSO 4mph /  6.5km/h 8.1mph /  13km/h 56.2% 0in /  0.0mm
11:59 50.2 °F /  10.1 °C 35.4 °F /  1.9 °C 30.4in /  1029.2hPa SSO 4.2mph /  6.8km/h 8mph /  12.9km/h 57% 0in /  0.0mm
12:04 50.4 °F /  10.2 °C 35.2 °F /  1.8 °C 30.4in /  1029.2hPa SO 4.3mph /  6.9km/h 8.1mph /  13km/h 56% 0in /  0.0mm
12:09 50.5 °F /  10.3 °C 35.1 °F /  1.7 °C 30.4in /  1028.9hPa OSO 4.1mph /  6.6km/h 8mph /  12.9km/h 55.3% 0in /  0.0mm
12:14 50.7 °F /  10.4 °C 35.1 °F /  1.7 °C 30.4in /  1028.9hPa Oeste 4mph /  6.5km/h 6.4mph /  10.3km/h 55% 0in /  0.0mm
12:19 51.3 °F /  10.7 °C 35.4 °F /  1.9 °C 30.4in /  1028.9hPa OSO 3.4mph /  5.4km/h 7mph /  11.3km/h 54.6% 0in /  0.0mm
12:24 51.4 °F /  10.8 °C 35.2 °F /  1.8 °C 30.4in /  1028.5hPa Oeste 2.9mph /  4.7km/h 7.4mph /  11.9km/h 54% 0in /  0.0mm
12:29 51.4 °F /  10.8 °C 35.2 °F /  1.8 °C 30.4in /  1028.5hPa OSO 3.5mph /  5.7km/h 7mph /  11.3km/h 54% 0in /  0.0mm
12:34 51.6 °F /  10.9 °C 35.4 °F /  1.9 °C 30.4in /  1028.5hPa OSO 4mph /  6.5km/h 7mph /  11.3km/h 54% 0in /  0.0mm
12:39 51.6 °F /  10.9 °C 35.4 °F /  1.9 °C 30.4in /  1028.1hPa Oeste 4.4mph /  7.1km/h 7.4mph /  11.9km/h 54% 0in /  0.0mm
12:44 51.6 °F /  10.9 °C 36 °F /  2.2 °C 30.4in /  1028.1hPa OSO 4.7mph /  7.6km/h 7mph /  11.3km/h 54.8% 0in /  0.0mm
12:49 52.2 °F /  11.2 °C 36.1 °F /  2.3 °C 30.4in /  1028.1hPa SO 3.7mph /  6km/h 6.2mph /  10km/h 54.6% 0in /  0.0mm
12:54 52.3 °F /  11.3 °C 36.7 °F /  2.6 °C 30.4in /  1027.7hPa SO 3.1mph /  5km/h 6.9mph /  11.1km/h 55% 0in /  0.0mm
12:59 52.7 °F /  11.5 °C 36.9 °F /  2.7 °C 30.4in /  1027.7hPa OSO 3.4mph /  5.5km/h 7mph /  11.3km/h 54.8% 0in /  0.0mm
13:04 53.1 °F /  11.7 °C 37 °F /  2.8 °C 30.4in /  1027.7hPa Oeste 3.6mph /  5.8km/h 6mph /  9.7km/h 54.3% 0in /  0.0mm
13:09 53.4 °F /  11.9 °C 37.2 °F /  2.9 °C 30.3in /  1027.3hPa OSO 3.6mph /  5.8km/h 7.4mph /  11.9km/h 54% 0in /  0.0mm
13:14 53.8 °F /  12.1 °C 37.4 °F /  3 °C 30.3in /  1027.3hPa SSO 3.6mph /  5.8km/h 7mph /  11.3km/h 54% 0in /  0.0mm
13:19 54 °F /  12.2 °C 37.8 °F /  3.2 °C 30.3in /  1027.3hPa OSO 3.3mph /  5.3km/h 6mph /  9.7km/h 54% 0in /  0.0mm
13:24 54.3 °F /  12.4 °C 37.9 °F /  3.3 °C 30.3in /  1026.9hPa Oeste 3.1mph /  5km/h 6mph /  9.7km/h 54% 0in /  0.0mm
13:29 54.7 °F /  12.6 °C 38.3 °F /  3.5 °C 30.3in /  1026.9hPa SO 2.7mph /  4.3km/h 6.2mph /  10km/h 53.7% 0in /  0.0mm
13:34 55 °F /  12.8 °C 38.1 °F /  3.4 °C 30.3in /  1026.9hPa Oeste 2.4mph /  3.9km/h 6.4mph /  10.3km/h 53% 0in /  0.0mm
13:39 55 °F /  12.8 °C 38.5 °F /  3.6 °C 30.3in /  1026.7hPa Oeste 2.9mph /  4.6km/h 7mph /  11.3km/h 53.5% 0in /  0.0mm
13:44 55.2 °F /  12.9 °C 38.5 °F /  3.6 °C 30.3in /  1026.7hPa SSO 3.1mph /  5km/h 6.9mph /  11.1km/h 53% 0in /  0.0mm
13:49 55.6 °F /  13.1 °C 38.7 °F /  3.7 °C 30.3in /  1026.7hPa SE 3.1mph /  5km/h 7mph /  11.3km/h 53% 0in /  0.0mm
13:54 55.9 °F /  13.3 °C 38.8 °F /  3.8 °C 30.3in /  1026.4hPa SSO 3.1mph /  5km/h 6.4mph /  10.3km/h 52.9% 0in /  0.0mm
13:59 56.1 °F /  13.4 °C 38.8 °F /  3.8 °C 30.3in /  1026.4hPa Oeste 3.1mph /  5km/h 7mph /  11.3km/h 52.2% 0in /  0.0mm
14:04 55.9 °F /  13.3 °C 39 °F /  3.9 °C 30.3in /  1026.4hPa Oeste 3.1mph /  5km/h 6.4mph /  10.3km/h 53% 0in /  0.0mm
14:09 56.1 °F /  13.4 °C 39.4 °F /  4.1 °C 30.3in /  1026.1hPa SSO 3.4mph /  5.5km/h 7.4mph /  11.9km/h 53.1% 0in /  0.0mm
14:14 56.5 °F /  13.6 °C 39.6 °F /  4.2 °C 30.3in /  1026.1hPa SO 3.6mph /  5.8km/h 7mph /  11.3km/h 53.1% 0in /  0.0mm
14:19 56.7 °F /  13.7 °C 39.7 °F /  4.3 °C 30.3in /  1026.1hPa SSO 4mph /  6.5km/h 9.2mph /  14.8km/h 53.4% 0in /  0.0mm
14:24 56.8 °F /  13.8 °C 39.7 °F /  4.3 °C 30.3in /  1025.8hPa SO 4.3mph /  6.9km/h 9mph /  14.5km/h 53% 0in /  0.0mm
14:29 56.8 °F /  13.8 °C 40.1 °F /  4.5 °C 30.3in /  1025.8hPa OSO 4.3mph /  6.9km/h 7mph /  11.3km/h 53.2% 0in /  0.0mm
14:34 57.4 °F /  14.1 °C 40.8 °F /  4.9 °C 30.3in /  1025.8hPa SO 4.3mph /  6.9km/h 8.7mph /  14km/h 54.1% 0in /  0.0mm
14:39 57.4 °F /  14.1 °C 41.5 °F /  5.3 °C 30.3in /  1025.6hPa SSO 4.3mph /  6.9km/h 9.2mph /  14.8km/h 55.3% 0in /  0.0mm
14:44 57.6 °F /  14.2 °C 41.5 °F /  5.3 °C 30.3in /  1025.6hPa Sur 4.3mph /  6.9km/h 9.2mph /  14.8km/h 55.3% 0in /  0.0mm
14:49 57.7 °F /  14.3 °C 41.4 °F /  5.2 °C 30.3in /  1025.6hPa Sur 4.5mph /  7.3km/h 10.2mph /  16.4km/h 54.5% 0in /  0.0mm
14:54 57.7 °F /  14.3 °C 41.2 °F /  5.1 °C 30.3in /  1025.2hPa Sur 4.7mph /  7.6km/h 10.4mph /  16.7km/h 53.9% 0in /  0.0mm
14:59 57.7 °F /  14.3 °C 41.4 °F /  5.2 °C 30.3in /  1025.2hPa SSO 5.7mph /  9.2km/h 10mph /  16.1km/h 54% 0in /  0.0mm
15:04 58.1 °F /  14.5 °C 41.4 °F /  5.2 °C 30.3in /  1025.2hPa Sur 6.2mph /  10km/h 8.1mph /  13km/h 53.7% 0in /  0.0mm
15:09 58.3 °F /  14.6 °C 41.4 °F /  5.2 °C 30.3in /  1025.2hPa SSO 5mph /  8.1km/h 8mph /  12.9km/h 53.1% 0in /  0.0mm
15:14 58.5 °F /  14.7 °C 41.4 °F /  5.2 °C 30.3in /  1025.2hPa SSO 4.3mph /  6.9km/h 8.1mph /  13km/h 53% 0in /  0.0mm
15:19 58.6 °F /  14.8 °C 41.5 °F /  5.3 °C 30.3in /  1025.2hPa SSO 4.8mph /  7.8km/h 8.5mph /  13.7km/h 53% 0in /  0.0mm
15:24 58.6 °F /  14.8 °C 41.5 °F /  5.3 °C 30.3in /  1024.7hPa SSO 5.2mph /  8.4km/h 9mph /  14.5km/h 53% 0in /  0.0mm
15:29 58.8 °F /  14.9 °C 41.7 °F /  5.4 °C 30.3in /  1024.7hPa SSO 5.2mph /  8.4km/h 9.7mph /  15.6km/h 53% 0in /  0.0mm
15:34 59 °F /  15 °C 41.9 °F /  5.5 °C 30.3in /  1024.7hPa SSO 5.2mph /  8.4km/h 10mph /  16.1km/h 53% 0in /  0.0mm
15:39 59.2 °F /  15.1 °C 42.1 °F /  5.6 °C 30.3in /  1024.5hPa Sur 5.3mph /  8.6km/h 10mph /  16.1km/h 53.2% 0in /  0.0mm
15:44 59.4 °F /  15.2 °C 42.3 °F /  5.7 °C 30.3in /  1024.5hPa Sur 5.4mph /  8.7km/h 7.4mph /  11.9km/h 53% 0in /  0.0mm
15:49 59.5 °F /  15.3 °C 42.3 °F /  5.7 °C 30.3in /  1024.5hPa SO 4.7mph /  7.6km/h 7mph /  11.3km/h 52.7% 0in /  0.0mm
15:54 59.7 °F /  15.4 °C 42.3 °F /  5.7 °C 30.3in /  1024.5hPa Sur 4.3mph /  6.9km/h 8.1mph /  13km/h 52.4% 0in /  0.0mm
15:59 59.9 °F /  15.5 °C 42.3 °F /  5.7 °C 30.3in /  1024.5hPa SSO 4.3mph /  6.9km/h 8mph /  12.9km/h 52% 0in /  0.0mm
16:04 60.1 °F /  15.6 °C 41.5 °F /  5.3 °C 30.3in /  1024.5hPa SO 4.3mph /  6.9km/h 8.5mph /  13.7km/h 50.2% 0in /  0.0mm
16:09 60.3 °F /  15.7 °C 41.5 °F /  5.3 °C 30.3in /  1024.3hPa SO 4.3mph /  6.9km/h 9mph /  14.5km/h 50% 0in /  0.0mm
16:14 60.3 °F /  15.7 °C 41.2 °F /  5.1 °C 30.3in /  1024.3hPa SSO 4.3mph /  6.9km/h 9.2mph /  14.8km/h 49.4% 0in /  0.0mm
16:19 60.3 °F /  15.7 °C 41 °F /  5 °C 30.3in /  1024.3hPa SSO 4.5mph /  7.3km/h 9mph /  14.5km/h 48.7% 0in /  0.0mm
16:24 60.4 °F /  15.8 °C 40.6 °F /  4.8 °C 30.2in /  1024.1hPa SSO 4.7mph /  7.6km/h 9.7mph /  15.6km/h 48% 0in /  0.0mm
16:29 60.4 °F /  15.8 °C 40.6 °F /  4.8 °C 30.2in /  1024.1hPa SO 5mph /  8.1km/h 10mph /  16.1km/h 48% 0in /  0.0mm
16:34 60.6 °F /  15.9 °C 40.6 °F /  4.8 °C 30.2in /  1024.1hPa SSO 5.2mph /  8.4km/h 9mph /  14.5km/h 47.7% 0in /  0.0mm
16:39 60.6 °F /  15.9 °C 40.3 °F /  4.6 °C 30.2in /  1023.9hPa SSO 4.9mph /  7.9km/h 9mph /  14.5km/h 47% 0in /  0.0mm
16:44 60.6 °F /  15.9 °C 39.9 °F /  4.4 °C 30.2in /  1023.9hPa SO 4.7mph /  7.6km/h 8mph /  12.9km/h 46.4% 0in /  0.0mm
16:49 61 °F /  16.1 °C 39.9 °F /  4.4 °C 30.2in /  1023.9hPa SO 4.5mph /  7.2km/h 7mph /  11.3km/h 46% 0in /  0.0mm
16:54 61 °F /  16.1 °C 39.9 °F /  4.4 °C 30.2in /  1023.9hPa SSO 4.3mph /  6.9km/h 7mph /  11.3km/h 46% 0in /  0.0mm
16:59 61 °F /  16.1 °C 39.9 °F /  4.4 °C 30.2in /  1023.9hPa SO 4.5mph /  7.3km/h 7mph /  11.3km/h 46% 0in /  0.0mm
17:04 61.2 °F /  16.2 °C 39.7 °F /  4.3 °C 30.2in /  1023.9hPa SO 4.7mph /  7.6km/h 7mph /  11.3km/h 45.3% 0in /  0.0mm
17:09 61.2 °F /  16.2 °C 39.6 °F /  4.2 °C 30.2in /  1023.8hPa SO 4mph /  6.5km/h 6mph /  9.7km/h 44.9% 0in /  0.0mm
17:14 61.2 °F /  16.2 °C 39.2 °F /  4 °C 30.2in /  1023.8hPa Oeste 3.6mph /  5.8km/h 5.2mph /  8.4km/h 44.1% 0in /  0.0mm
17:19 61.2 °F /  16.2 °C 39 °F /  3.9 °C 30.2in /  1023.8hPa Oeste 3.2mph /  5.1km/h 5mph /  8km/h 44% 0in /  0.0mm
17:24 61.2 °F /  16.2 °C 39 °F /  3.9 °C 30.2in /  1023.8hPa SO 2.9mph /  4.7km/h 5.9mph /  9.5km/h 44% 0in /  0.0mm
17:29 61.2 °F /  16.2 °C 38.8 °F /  3.8 °C 30.2in /  1023.8hPa OSO 3.3mph /  5.3km/h 6mph /  9.7km/h 43.8% 0in /  0.0mm
17:34 61 °F /  16.1 °C 38.8 °F /  3.8 °C 30.2in /  1023.8hPa OSO 3.6mph /  5.8km/h 6mph /  9.7km/h 44% 0in /  0.0mm
17:39 61.2 °F /  16.2 °C 38.5 °F /  3.6 °C 30.2in /  1023.7hPa OSO 2.5mph /  4.1km/h 5mph /  8km/h 43.3% 0in /  0.0mm
17:44 61.2 °F /  16.2 °C 38.7 °F /  3.7 °C 30.2in /  1023.7hPa OSO 1.8mph /  2.9km/h 4mph /  6.4km/h 43.2% 0in /  0.0mm
17:49 61.2 °F /  16.2 °C 38.5 °F /  3.6 °C 30.2in /  1023.7hPa OSO 1.6mph /  2.5km/h 2mph /  3.2km/h 43% 0in /  0.0mm
17:54 61 °F /  16.1 °C 40.1 °F /  4.5 °C 30.2in /  1023.7hPa Sur 1.4mph /  2.2km/h 4.7mph /  7.6km/h 46.3% 0in /  0.0mm
17:59 60.1 °F /  15.6 °C 42.1 °F /  5.6 °C 30.2in /  1023.7hPa SE 2.1mph /  3.3km/h 5mph /  8km/h 51.3% 0in /  0.0mm
18:04 59.4 °F /  15.2 °C 42.4 °F /  5.8 °C 30.2in /  1023.7hPa SE 2.4mph /  3.9km/h 5.4mph /  8.7km/h 53.6% 0in /  0.0mm
18:09 58.8 °F /  14.9 °C 42.6 °F /  5.9 °C 30.2in /  1023.5hPa SE 2.8mph /  4.5km/h 6mph /  9.7km/h 55% 0in /  0.0mm
18:14 58.5 °F /  14.7 °C 42.6 °F /  5.9 °C 30.2in /  1023.5hPa SE 3.1mph /  5km/h 5.2mph /  8.4km/h 55.9% 0in /  0.0mm
18:19 57.9 °F /  14.4 °C 42.8 °F /  6 °C 30.2in /  1023.5hPa SSE 3.1mph /  5km/h 5.8mph /  9.3km/h 56.9% 0in /  0.0mm
18:24 57.6 °F /  14.2 °C 42.8 °F /  6 °C 30.2in /  1023.4hPa SSE 3.1mph /  5km/h 6mph /  9.7km/h 57.7% 0in /  0.0mm
18:29 57.4 °F /  14.1 °C 43.2 °F /  6.2 °C 30.2in /  1023.4hPa SSE 2.7mph /  4.3km/h 6mph /  9.7km/h 58.9% 0in /  0.0mm
18:34 57.2 °F /  14 °C 43.2 °F /  6.2 °C 30.2in /  1023.5hPa SSE 2.4mph /  3.9km/h 3.5mph /  5.6km/h 59.6% 0in /  0.0mm
18:39 57 °F /  13.9 °C 43.3 °F /  6.3 °C 30.2in /  1023.5hPa SSE 2.1mph /  3.3km/h 3mph /  4.8km/h 60% 0in /  0.0mm
18:44 57 °F /  13.9 °C 43.3 °F /  6.3 °C 30.2in /  1023.5hPa SSE 1.8mph /  2.9km/h 3.1mph /  5km/h 60% 0in /  0.0mm
18:49 56.8 °F /  13.8 °C 43.2 °F /  6.2 °C 30.2in /  1023.5hPa SSE 1.6mph /  2.5km/h 4mph /  6.4km/h 60% 0in /  0.0mm
18:54 56.7 °F /  13.7 °C 43 °F /  6.1 °C 30.2in /  1023.4hPa SSE 1.4mph /  2.2km/h 5mph /  8km/h 60% 0in /  0.0mm
18:59 56.5 °F /  13.6 °C 43 °F /  6.1 °C 30.2in /  1023.4hPa SSE 1.8mph /  2.9km/h 5mph /  8km/h 60.4% 0in /  0.0mm
19:04 56.1 °F /  13.4 °C 42.8 °F /  6 °C 30.2in /  1023.4hPa SSE 2mph /  3.2km/h 2.9mph /  4.7km/h 61% 0in /  0.0mm
19:09 55.6 °F /  13.1 °C 42.4 °F /  5.8 °C 30.2in /  1023.4hPa SSE 0.8mph /  1.3km/h 3mph /  4.8km/h 61% 0in /  0.0mm
19:14 55 °F /  12.8 °C 41.9 °F /  5.5 °C 30.2in /  1023.4hPa Calm     61% 0in /  0.0mm
19:19 54.9 °F /  12.7 °C 41.9 °F /  5.5 °C 30.2in /  1023.4hPa Calm   2.4mph /  3.9km/h 61.8% 0in /  0.0mm
19:24 54.3 °F /  12.4 °C 41.7 °F /  5.4 °C 30.2in /  1023.3hPa Calm   5.9mph /  9.5km/h 62.2% 0in /  0.0mm
19:29 54.3 °F /  12.4 °C 42.1 °F /  5.6 °C 30.2in /  1023.3hPa SO 1.1mph /  1.7km/h 6.9mph /  11.1km/h 63.4% 0in /  0.0mm
19:34 54.3 °F /  12.4 °C 42.8 °F /  6 °C 30.2in /  1023.3hPa SO 2mph /  3.2km/h 7mph /  11.3km/h 65% 0in /  0.0mm
19:39 54.3 °F /  12.4 °C 43.2 °F /  6.2 °C 30.2in /  1023.3hPa SO 3.2mph /  5.1km/h 6.2mph /  10km/h 66% 0in /  0.0mm
19:44 54.1 °F /  12.3 °C 43.3 °F /  6.3 °C 30.2in /  1023.3hPa SO 4mph /  6.5km/h 7.4mph /  11.9km/h 66.6% 0in /  0.0mm
19:49 54 °F /  12.2 °C 43.5 °F /  6.4 °C 30.2in /  1023.3hPa SO 4.4mph /  7.1km/h 7.4mph /  11.9km/h 67.8% 0in /  0.0mm
19:54 53.8 °F /  12.1 °C 43.7 °F /  6.5 °C 30.2in /  1023.1hPa SO 4.7mph /  7.6km/h 8.1mph /  13km/h 68.7% 0in /  0.0mm
19:59 53.6 °F /  12 °C 43.9 °F /  6.6 °C 30.2in /  1023.1hPa SSO 4.5mph /  7.2km/h 9.2mph /  14.8km/h 69.7% 0in /  0.0mm
20:04 53.4 °F /  11.9 °C 44.1 °F /  6.7 °C 30.2in /  1023.1hPa SSO 4.3mph /  6.9km/h 9mph /  14.5km/h 70.3% 0in /  0.0mm
20:09 53.2 °F /  11.8 °C 44.1 °F /  6.7 °C 30.2in /  1023.1hPa SO 4.8mph /  7.8km/h 9mph /  14.5km/h 71% 0in /  0.0mm
20:14 53.1 °F /  11.7 °C 43.9 °F /  6.6 °C 30.2in /  1023.1hPa SSO 5.2mph /  8.4km/h 8mph /  12.9km/h 71.3% 0in /  0.0mm
20:19 52.7 °F /  11.5 °C 43.9 °F /  6.6 °C 30.2in /  1023.2hPa SSO 4.9mph /  7.9km/h 7mph /  11.3km/h 72% 0in /  0.0mm
20:24 52.3 °F /  11.3 °C 43.9 °F /  6.6 °C 30.2in /  1023.2hPa SSO 4.7mph /  7.6km/h 7mph /  11.3km/h 72.7% 0in /  0.0mm
20:29 52.2 °F /  11.2 °C 43.9 °F /  6.6 °C 30.2in /  1023.2hPa SSO 4.3mph /  6.9km/h 7mph /  11.3km/h 73% 0in /  0.0mm
20:34 52 °F /  11.1 °C 43.7 °F /  6.5 °C 30.2in /  1023.2hPa Sur 4mph /  6.5km/h 5.2mph /  8.4km/h 73.2% 0in /  0.0mm
20:39 52 °F /  11.1 °C 43.9 °F /  6.6 °C 30.2in /  1023.2hPa Sur 3.5mph /  5.6km/h 5mph /  8km/h 74% 0in /  0.0mm
20:44 51.8 °F /  11 °C 43.7 °F /  6.5 °C 30.2in /  1023.2hPa SSE 3.1mph /  5km/h 5mph /  8km/h 74% 0in /  0.0mm
20:49 51.6 °F /  10.9 °C 43.7 °F /  6.5 °C 30.2in /  1023.2hPa Sur 3.1mph /  5km/h 5.9mph /  9.5km/h 74.2% 0in /  0.0mm
20:54 51.4 °F /  10.8 °C 43.7 °F /  6.5 °C 30.2in /  1023.1hPa Sur 3.1mph /  5km/h 6mph /  9.7km/h 75% 0in /  0.0mm
20:59 51.3 °F /  10.7 °C 43.7 °F /  6.5 °C 30.2in /  1023.1hPa Sur 3.7mph /  5.9km/h 6.4mph /  10.3km/h 75.4% 0in /  0.0mm
21:04 51.1 °F /  10.6 °C 43.9 °F /  6.6 °C 30.2in /  1023.1hPa Sur 4mph /  6.5km/h 7mph /  11.3km/h 76% 0in /  0.0mm
21:09 50.9 °F /  10.5 °C 43.7 °F /  6.5 °C 30.2in /  1023.0hPa SSO 4mph /  6.5km/h 7mph /  11.3km/h 76.3% 0in /  0.0mm
21:14 50.9 °F /  10.5 °C 43.9 °F /  6.6 °C 30.2in /  1023.0hPa SSO 4mph /  6.5km/h 6.2mph /  10km/h 77% 0in /  0.0mm
21:19 50.9 °F /  10.5 °C 43.9 °F /  6.6 °C 30.2in /  1023.0hPa Sur 4mph /  6.5km/h 6.2mph /  10km/h 76.9% 0in /  0.0mm
21:24 50.7 °F /  10.4 °C 43.5 °F /  6.4 °C 30.2in /  1023.0hPa Sur 4mph /  6.5km/h 6.9mph /  11.1km/h 76% 0in /  0.0mm
21:29 50.7 °F /  10.4 °C 43.3 °F /  6.3 °C 30.2in /  1023.0hPa Sur 3.5mph /  5.6km/h 8.5mph /  13.7km/h 76% 0in /  0.0mm
21:34 50.7 °F /  10.4 °C 43.3 °F /  6.3 °C 30.2in /  1023.0hPa SO 3.1mph /  5km/h 9mph /  14.5km/h 76% 0in /  0.0mm
21:39 50.9 °F /  10.5 °C 43.5 °F /  6.4 °C 30.2in /  1022.9hPa SO 3.6mph /  5.8km/h 10mph /  16.1km/h 76% 0in /  0.0mm
21:44 51.1 °F /  10.6 °C 43.5 °F /  6.4 °C 30.2in /  1022.9hPa SSO 4mph /  6.5km/h 10.4mph /  16.7km/h 75% 0in /  0.0mm
21:49 51.3 °F /  10.7 °C 43.5 °F /  6.4 °C 30.2in /  1022.9hPa SSO 4.7mph /  7.6km/h 10mph /  16.1km/h 74.8% 0in /  0.0mm
21:54 51.1 °F /  10.6 °C 43.2 °F /  6.2 °C 30.2in /  1022.8hPa SO 5.2mph /  8.4km/h 7.4mph /  11.9km/h 74% 0in /  0.0mm
21:59 50.7 °F /  10.4 °C 43 °F /  6.1 °C 30.2in /  1022.8hPa SO 3.9mph /  6.2km/h 7mph /  11.3km/h 74.5% 0in /  0.0mm
22:04 50.5 °F /  10.3 °C 43 °F /  6.1 °C 30.2in /  1022.8hPa SO 3.1mph /  5km/h 6.2mph /  10km/h 75% 0in /  0.0mm
22:09 50.5 °F /  10.3 °C 43 °F /  6.1 °C 30.2in /  1022.7hPa Sur 3.1mph /  5km/h 6mph /  9.7km/h 75% 0in /  0.0mm
22:14 50.4 °F /  10.2 °C 42.6 °F /  5.9 °C 30.2in /  1022.7hPa Sur 3.1mph /  5km/h 5mph /  8km/h 75% 0in /  0.0mm
22:19 50 °F /  10 °C 42.6 °F /  5.9 °C 30.2in /  1022.7hPa Sur 3mph /  4.8km/h 6.2mph /  10km/h 75.9% 0in /  0.0mm
22:24 49.6 °F /  9.8 °C 42.8 °F /  6 °C 30.2in /  1022.5hPa SSO 2.9mph /  4.7km/h 6mph /  9.7km/h 76.9% 0in /  0.0mm
22:29 49.6 °F /  9.8 °C 42.6 °F /  5.9 °C 30.2in /  1022.5hPa Sur 3mph /  4.8km/h 6mph /  9.7km/h 77% 0in /  0.0mm
22:34 49.6 °F /  9.8 °C 42.8 °F /  6 °C 30.2in /  1022.5hPa Sur 3.1mph /  5km/h 6mph /  9.7km/h 77.3% 0in /  0.0mm
22:39 49.5 °F /  9.7 °C 43 °F /  6.1 °C 30.2in /  1022.4hPa Sur 3mph /  4.8km/h 6mph /  9.7km/h 78% 0in /  0.0mm
22:44 49.5 °F /  9.7 °C 43 °F /  6.1 °C 30.2in /  1022.4hPa Sur 2.9mph /  4.7km/h 6.9mph /  11.1km/h 78% 0in /  0.0mm
22:49 49.3 °F /  9.6 °C 42.8 °F /  6 °C 30.2in /  1022.4hPa Sur 3.7mph /  6km/h 8.1mph /  13km/h 78% 0in /  0.0mm
22:54 49.1 °F /  9.5 °C 42.4 °F /  5.8 °C 30.2in /  1022.0hPa Sur 4.3mph /  6.9km/h 8mph /  12.9km/h 78% 0in /  0.0mm
22:59 48.6 °F /  9.2 °C 42.1 °F /  5.6 °C 30.2in /  1022.0hPa SSE 4.5mph /  7.3km/h 7.4mph /  11.9km/h 78% 0in /  0.0mm
23:04 47.8 °F /  8.8 °C 41.5 °F /  5.3 °C 30.2in /  1022.0hPa Sur 4.7mph /  7.6km/h 7mph /  11.3km/h 78.4% 0in /  0.0mm
23:09 47.7 °F /  8.7 °C 41.4 °F /  5.2 °C 30.2in /  1022.0hPa Sur 5mph /  8.1km/h 7mph /  11.3km/h 79% 0in /  0.0mm
23:14 47.5 °F /  8.6 °C 41.4 °F /  5.2 °C 30.2in /  1022.0hPa Sur 5.2mph /  8.4km/h 7mph /  11.3km/h 79% 0in /  0.0mm
23:19 47.5 °F /  8.6 °C 41.4 °F /  5.2 °C 30.2in /  1022.0hPa Sur 4.5mph /  7.2km/h 7mph /  11.3km/h 79.1% 0in /  0.0mm
23:24 47.7 °F /  8.7 °C 41.5 °F /  5.3 °C 30.2in /  1022.0hPa SSO 4mph /  6.5km/h 6.9mph /  11.1km/h 79.6% 0in /  0.0mm
23:29 47.7 °F /  8.7 °C 41.9 °F /  5.5 °C 30.2in /  1022.0hPa SSO 4.2mph /  6.7km/h 7mph /  11.3km/h 79.9% 0in /  0.0mm
23:34 47.8 °F /  8.8 °C 41.5 °F /  5.3 °C 30.2in /  1022.0hPa Sur 4.3mph /  6.9km/h 8.5mph /  13.7km/h 79.1% 0in /  0.0mm
23:39 47.8 °F /  8.8 °C 41.7 °F /  5.4 °C 30.2in /  1021.9hPa SSO 4.5mph /  7.3km/h 9mph /  14.5km/h 79.3% 0in /  0.0mm
23:44 47.8 °F /  8.8 °C 41.7 °F /  5.4 °C 30.2in /  1021.9hPa SSO 4.7mph /  7.6km/h 9mph /  14.5km/h 79.2% 0in /  0.0mm
23:49 48 °F /  8.9 °C 41.7 °F /  5.4 °C 30.2in /  1021.9hPa SSO 4.7mph /  7.6km/h 9.2mph /  14.8km/h 79% 0in /  0.0mm
23:54 48.2 °F /  9 °C 42.1 °F /  5.6 °C 30.2in /  1021.7hPa SO 4.7mph /  7.6km/h 11.2mph /  18km/h 79% 0in /  0.0mm
23:59 48.6 °F /  9.2 °C 42.1 °F /  5.6 °C 30.2in /  1021.7hPa SSO 5.2mph /  8.3km/h 12mph /  19.3km/h 78.1% 0in /  0.0mm
Murcia-Puente Tocinos, Espa?a
Compliments of Weather Underground - 3.25 mb

La estación de MeteoMurcia.com, publica sus datos en los siguientes proyectos:

Weather Underground PWS IMURCIAP2 Meteoclimatic www.awekas.at

W3Counter
Web Analytics